»·PEaware :: DAL571 KSAN-KLAX

DAL571 :: KSAN-KLAX

FLIGHT INFORMATION

Flight Status: Arrived
Operator:
Delta Air Lines
More flights by this operator :: More flights under this callsign
Pilot: John H. (20300)
Aircraft: BOEING 737-800
(B738)
More flights by this aircraft type
Origin: KSAN San Diego Intl-Lindbergh
United States
Destination: KLAX Los Angeles Intl
United States
More flights between these airports :: More routes between these airports
Route: CWARD2 SLI
File this flight plan on PilotEdge
Remarks: GO EASY ON ME, im new on the network, i have charts
Altitude:
(Current/Filed)
10,000ft
Speed:
(Current/Filed)
115kts
Departed: 25-Sep-18 03:38 PM
Arrived: 25-Sep-18 04:13 PM
Distance/Time
Traveled:
95nm/0:34
Distance/Time
To Go:
Arrived

Flight Plot

Page will automatically refresh every two minutes.

Flight plan parsing failed; only flown route is shown


Map Options




Map Legend


Flown Route
Filed Route
Departure Airport
Arrival Airport
Navaid (VOR, NDB)
Fix

Horizontal Profiles

Position Reports

Time Latitude Longitude Heading Altitude Ground
Speed
25-Sep-18 15:27 32.733218 -117.196885 0 18ft 0kts
25-Sep-18 15:28 32.733218 -117.196885 134 18ft 0kts
25-Sep-18 15:29 32.733218 -117.196885 134 18ft 0kts
25-Sep-18 15:30 32.733218 -117.196885 134 18ft 0kts
25-Sep-18 15:31 32.733218 -117.196885 134 18ft 0kts
25-Sep-18 15:32 32.733218 -117.196885 134 18ft 0kts
25-Sep-18 15:33 32.733237 -117.196911 144 18ft 1kts
25-Sep-18 15:34 32.733772 -117.196857 185 17ft 2kts
25-Sep-18 15:35 32.733996 -117.197011 150 17ft 0kts
25-Sep-18 15:36 32.733996 -117.197011 150 17ft 0kts
25-Sep-18 15:37 32.733486 -117.193619 105 21ft 34kts
25-Sep-18 15:38 32.732086 -117.187792 107 18ft 35kts
25-Sep-18 15:39 32.729479 -117.177085 98 22ft 11kts
25-Sep-18 15:40 32.730799 -117.178349 285 22ft 67kts
25-Sep-18 15:41 32.749191 -117.224644 299 2359ft 205kts
25-Sep-18 15:42 32.784633 -117.291050 303 4550ft 260kts
25-Sep-18 15:43 32.827174 -117.362571 308 7043ft 274kts
25-Sep-18 15:44 32.874673 -117.435959 308 9549ft 288kts
25-Sep-18 15:45 32.924049 -117.512525 308 9985ft 289kts
25-Sep-18 15:46 32.973099 -117.588811 308 9990ft 290kts
25-Sep-18 15:47 33.021944 -117.664981 308 9989ft 291kts
25-Sep-18 15:48 33.072438 -117.740895 321 9987ft 292kts
25-Sep-18 15:49 33.134936 -117.803462 319 10007ft 371kts
25-Sep-18 15:50 33.224869 -117.873491 348 10033ft 395kts
25-Sep-18 15:51 33.332755 -117.898112 349 10022ft 395kts
25-Sep-18 15:52 33.439091 -117.929556 344 10012ft 395kts
25-Sep-18 15:53 33.543904 -117.967633 343 10009ft 395kts
25-Sep-18 15:54 33.648857 -118.005869 343 10009ft 395kts
25-Sep-18 15:55 33.750246 -118.042899 343 8891ft 385kts
25-Sep-18 15:56 33.841796 -118.086644 346 6564ft 328kts
25-Sep-18 15:57 33.927012 -118.103452 351 4990ft 284kts
25-Sep-18 15:58 33.976002 -118.157742 272 3989ft 247kts
25-Sep-18 15:59 33.958995 -118.226977 244 3170ft 195kts
25-Sep-18 16:00 33.947045 -118.285830 263 1901ft 167kts
25-Sep-18 16:01 33.942353 -118.332004 265 876ft 135kts
25-Sep-18 16:02 33.937981 -118.376589 261 268ft 134kts
25-Sep-18 16:03 33.933604 -118.420930 256 1422ft 168kts
25-Sep-18 16:04 33.911820 -118.485007 241 2056ft 219kts
25-Sep-18 16:05 33.869371 -118.529438 175 3029ft 216kts
25-Sep-18 16:06 33.839891 -118.473645 83 3033ft 231kts
25-Sep-18 16:07 33.850179 -118.397339 81 3019ft 231kts
25-Sep-18 16:08 33.860417 -118.321065 81 3018ft 232kts
25-Sep-18 16:09 33.872335 -118.246157 59 2517ft 210kts
25-Sep-18 16:10 33.918016 -118.232223 350 2519ft 160kts
25-Sep-18 16:11 33.950770 -118.254092 274 2031ft 135kts
25-Sep-18 16:12 33.945443 -118.298739 262 1499ft 136kts
25-Sep-18 16:13 33.941696 -118.338109 263 1150ft 146kts
25-Sep-18 16:14 33.936401 -118.392077 262 106ft 105kts
25-Sep-18 16:15 33.936013 -118.402899 293 119ft 0kts
25-Sep-18 16:16 33.936043 -118.402981 294 119ft 0kts
25-Sep-18 16:17 33.936086 -118.403112 281 119ft 0kts
25-Sep-18 16:18 33.936125 -118.408580 298 126ft 0kts
25-Sep-18 16:19 33.937609 -118.409094 354 126ft 0kts
25-Sep-18 16:20 33.937617 -118.409095 354 126ft 0kts
25-Sep-18 16:21 33.940254 -118.408755 280 125ft 12kts

Navigation Log

Ident Type
Flight plan parsing failed, navigation log unavailable